sensor_id;sensor_type;location;lat;lon;timestamp;P1;durP1;ratioP1;P2;durP2;ratioP2
14139;SDS011;7150;53.514;9.988;2023-12-28T00:02:00;2.47;;;1.60;;
14139;SDS011;7150;53.514;9.988;2023-12-28T00:04:26;1.70;;;1.50;;
14139;SDS011;7150;53.514;9.988;2023-12-28T00:06:53;2.00;;;1.40;;
14139;SDS011;7150;53.514;9.988;2023-12-28T00:09:18;2.30;;;1.33;;
14139;SDS011;7150;53.514;9.988;2023-12-28T00:11:44;3.07;;;2.10;;
14139;SDS011;7150;53.514;9.988;2023-12-28T00:14:09;3.07;;;1.53;;
14139;SDS011;7150;53.514;9.988;2023-12-28T00:16:34;1.90;;;1.50;;
14139;SDS011;7150;53.514;9.988;2023-12-28T00:19:02;2.83;;;1.53;;
14139;SDS011;7150;53.514;9.988;2023-12-28T00:21:28;2.33;;;1.67;;
14139;SDS011;7150;53.514;9.988;2023-12-28T00:23:54;2.80;;;1.80;;
14139;SDS011;7150;53.514;9.988;2023-12-28T00:26:20;3.90;;;1.57;;
14139;SDS011;7150;53.514;9.988;2023-12-28T00:28:46;2.50;;;1.50;;
14139;SDS011;7150;53.514;9.988;2023-12-28T00:31:12;3.50;;;1.83;;
14139;SDS011;7150;53.514;9.988;2023-12-28T00:33:37;3.30;;;1.50;;
14139;SDS011;7150;53.514;9.988;2023-12-28T00:36:03;1.73;;;1.40;;
14139;SDS011;7150;53.514;9.988;2023-12-28T00:38:29;2.87;;;1.73;;
14139;SDS011;7150;53.514;9.988;2023-12-28T00:40:54;2.47;;;1.73;;
14139;SDS011;7150;53.514;9.988;2023-12-28T00:43:20;2.80;;;1.80;;
14139;SDS011;7150;53.514;9.988;2023-12-28T00:45:45;2.17;;;1.50;;
14139;SDS011;7150;53.514;9.988;2023-12-28T00:48:11;2.70;;;1.40;;
14139;SDS011;7150;53.514;9.988;2023-12-28T00:50:36;2.67;;;1.53;;
14139;SDS011;7150;53.514;9.988;2023-12-28T00:53:02;1.90;;;1.47;;
14139;SDS011;7150;53.514;9.988;2023-12-28T00:55:27;3.40;;;1.50;;
14139;SDS011;7150;53.514;9.988;2023-12-28T00:57:53;1.93;;;1.40;;
14139;SDS011;7150;53.514;9.988;2023-12-28T01:00:18;2.57;;;1.60;;
14139;SDS011;7150;53.514;9.988;2023-12-28T01:02:44;1.57;;;1.37;;
14139;SDS011;7150;53.514;9.988;2023-12-28T01:05:12;2.30;;;1.50;;
14139;SDS011;7150;53.514;9.988;2023-12-28T01:07:38;3.47;;;1.60;;
14139;SDS011;7150;53.514;9.988;2023-12-28T01:10:03;2.03;;;1.47;;
14139;SDS011;7150;53.514;9.988;2023-12-28T01:12:29;3.27;;;1.87;;
14139;SDS011;7150;53.514;9.988;2023-12-28T01:14:54;2.17;;;1.47;;
14139;SDS011;7150;53.514;9.988;2023-12-28T01:17:20;2.97;;;1.43;;
14139;SDS011;7150;53.514;9.988;2023-12-28T01:19:45;2.73;;;1.90;;
14139;SDS011;7150;53.514;9.988;2023-12-28T01:22:11;2.13;;;1.40;;
14139;SDS011;7150;53.514;9.988;2023-12-28T01:24:37;4.77;;;1.60;;
14139;SDS011;7150;53.514;9.988;2023-12-28T01:27:02;2.17;;;1.63;;
14139;SDS011;7150;53.514;9.988;2023-12-28T01:29:28;2.23;;;1.70;;
14139;SDS011;7150;53.514;9.988;2023-12-28T01:31:53;3.17;;;1.53;;
14139;SDS011;7150;53.514;9.988;2023-12-28T01:34:19;2.70;;;1.60;;
14139;SDS011;7150;53.514;9.988;2023-12-28T01:36:44;3.43;;;1.70;;
14139;SDS011;7150;53.514;9.988;2023-12-28T01:39:10;3.03;;;1.70;;
14139;SDS011;7150;53.514;9.988;2023-12-28T01:41:36;2.43;;;1.60;;
14139;SDS011;7150;53.514;9.988;2023-12-28T01:44:01;4.67;;;1.80;;
14139;SDS011;7150;53.514;9.988;2023-12-28T01:46:27;4.00;;;2.13;;
14139;SDS011;7150;53.514;9.988;2023-12-28T01:48:52;2.33;;;1.50;;
14139;SDS011;7150;53.514;9.988;2023-12-28T01:51:18;3.20;;;1.87;;
14139;SDS011;7150;53.514;9.988;2023-12-28T01:53:45;2.60;;;2.00;;
14139;SDS011;7150;53.514;9.988;2023-12-28T01:56:12;2.30;;;1.60;;
14139;SDS011;7150;53.514;9.988;2023-12-28T01:58:38;3.27;;;1.70;;
14139;SDS011;7150;53.514;9.988;2023-12-28T02:01:06;2.30;;;1.87;;
14139;SDS011;7150;53.514;9.988;2023-12-28T02:03:32;2.97;;;2.07;;
14139;SDS011;7150;53.514;9.988;2023-12-28T02:05:57;2.33;;;1.60;;
14139;SDS011;7150;53.514;9.988;2023-12-28T02:08:25;3.27;;;1.90;;
14139;SDS011;7150;53.514;9.988;2023-12-28T02:10:51;2.17;;;1.70;;
14139;SDS011;7150;53.514;9.988;2023-12-28T02:13:16;2.93;;;1.77;;
14139;SDS011;7150;53.514;9.988;2023-12-28T02:15:42;3.33;;;1.90;;
14139;SDS011;7150;53.514;9.988;2023-12-28T02:18:12;2.43;;;1.80;;
14139;SDS011;7150;53.514;9.988;2023-12-28T02:20:39;2.60;;;1.70;;
14139;SDS011;7150;53.514;9.988;2023-12-28T02:23:07;3.00;;;2.03;;
14139;SDS011;7150;53.514;9.988;2023-12-28T02:25:34;2.77;;;1.93;;
14139;SDS011;7150;53.514;9.988;2023-12-28T02:28:00;3.30;;;2.10;;
14139;SDS011;7150;53.514;9.988;2023-12-28T02:30:25;4.17;;;2.03;;
14139;SDS011;7150;53.514;9.988;2023-12-28T02:32:59;3.97;;;1.60;;
14139;SDS011;7150;53.514;9.988;2023-12-28T02:35:40;3.50;;;1.83;;
14139;SDS011;7150;53.514;9.988;2023-12-28T02:38:09;2.67;;;1.87;;
14139;SDS011;7150;53.514;9.988;2023-12-28T02:40:39;3.57;;;2.33;;
14139;SDS011;7150;53.514;9.988;2023-12-28T02:43:06;3.73;;;1.87;;
14139;SDS011;7150;53.514;9.988;2023-12-28T02:45:33;3.27;;;1.73;;
14139;SDS011;7150;53.514;9.988;2023-12-28T02:47:59;3.40;;;2.20;;
14139;SDS011;7150;53.514;9.988;2023-12-28T02:50:25;2.40;;;2.03;;
14139;SDS011;7150;53.514;9.988;2023-12-28T02:52:51;3.77;;;1.87;;
14139;SDS011;7150;53.514;9.988;2023-12-28T02:55:17;5.13;;;2.33;;
14139;SDS011;7150;53.514;9.988;2023-12-28T02:57:43;3.43;;;1.83;;
14139;SDS011;7150;53.514;9.988;2023-12-28T03:00:09;3.13;;;1.97;;
14139;SDS011;7150;53.514;9.988;2023-12-28T03:02:38;2.40;;;2.00;;
14139;SDS011;7150;53.514;9.988;2023-12-28T03:05:04;2.17;;;1.83;;
14139;SDS011;7150;53.514;9.988;2023-12-28T03:07:30;3.90;;;2.07;;
14139;SDS011;7150;53.514;9.988;2023-12-28T03:09:57;3.27;;;2.30;;
14139;SDS011;7150;53.514;9.988;2023-12-28T03:12:22;3.30;;;2.17;;
14139;SDS011;7150;53.514;9.988;2023-12-28T03:14:48;4.83;;;2.47;;
14139;SDS011;7150;53.514;9.988;2023-12-28T03:17:13;3.30;;;2.67;;
14139;SDS011;7150;53.514;9.988;2023-12-28T03:19:39;2.80;;;2.33;;
14139;SDS011;7150;53.514;9.988;2023-12-28T03:22:04;3.43;;;2.30;;
14139;SDS011;7150;53.514;9.988;2023-12-28T03:24:30;3.20;;;2.47;;
14139;SDS011;7150;53.514;9.988;2023-12-28T03:26:55;4.10;;;2.17;;
14139;SDS011;7150;53.514;9.988;2023-12-28T03:29:21;3.77;;;2.37;;
14139;SDS011;7150;53.514;9.988;2023-12-28T03:31:46;3.43;;;2.03;;
14139;SDS011;7150;53.514;9.988;2023-12-28T03:34:12;2.93;;;2.23;;
14139;SDS011;7150;53.514;9.988;2023-12-28T03:36:37;2.60;;;2.13;;
14139;SDS011;7150;53.514;9.988;2023-12-28T03:39:03;4.70;;;2.13;;
14139;SDS011;7150;53.514;9.988;2023-12-28T03:41:28;3.03;;;2.27;;
14139;SDS011;7150;53.514;9.988;2023-12-28T03:43:54;3.70;;;2.17;;
14139;SDS011;7150;53.514;9.988;2023-12-28T03:46:20;3.50;;;1.93;;
14139;SDS011;7150;53.514;9.988;2023-12-28T03:48:45;3.90;;;2.30;;
14139;SDS011;7150;53.514;9.988;2023-12-28T03:51:14;3.83;;;2.10;;
14139;SDS011;7150;53.514;9.988;2023-12-28T03:53:40;2.87;;;1.90;;
14139;SDS011;7150;53.514;9.988;2023-12-28T03:56:25;2.60;;;1.77;;
14139;SDS011;7150;53.514;9.988;2023-12-28T03:58:51;2.80;;;2.30;;
14139;SDS011;7150;53.514;9.988;2023-12-28T04:01:18;3.47;;;2.13;;
14139;SDS011;7150;53.514;9.988;2023-12-28T04:03:44;3.97;;;2.13;;
14139;SDS011;7150;53.514;9.988;2023-12-28T04:06:10;2.30;;;1.87;;
14139;SDS011;7150;53.514;9.988;2023-12-28T04:08:37;3.43;;;2.13;;
14139;SDS011;7150;53.514;9.988;2023-12-28T04:11:03;3.27;;;2.33;;
14139;SDS011;7150;53.514;9.988;2023-12-28T04:13:29;3.10;;;2.40;;
14139;SDS011;7150;53.514;9.988;2023-12-28T04:15:54;4.73;;;2.67;;
14139;SDS011;7150;53.514;9.988;2023-12-28T04:18:20;2.80;;;1.77;;
14139;SDS011;7150;53.514;9.988;2023-12-28T04:20:45;3.73;;;2.20;;
14139;SDS011;7150;53.514;9.988;2023-12-28T04:23:11;3.37;;;2.10;;
14139;SDS011;7150;53.514;9.988;2023-12-28T04:25:36;2.97;;;1.97;;
14139;SDS011;7150;53.514;9.988;2023-12-28T04:28:02;3.13;;;1.80;;
14139;SDS011;7150;53.514;9.988;2023-12-28T04:30:27;5.30;;;2.10;;
14139;SDS011;7150;53.514;9.988;2023-12-28T04:32:53;2.20;;;1.90;;
14139;SDS011;7150;53.514;9.988;2023-12-28T04:35:18;6.70;;;2.90;;
14139;SDS011;7150;53.514;9.988;2023-12-28T04:37:44;2.60;;;2.13;;
14139;SDS011;7150;53.514;9.988;2023-12-28T04:40:09;4.13;;;2.10;;
14139;SDS011;7150;53.514;9.988;2023-12-28T04:42:35;2.33;;;1.90;;
14139;SDS011;7150;53.514;9.988;2023-12-28T04:45:01;2.90;;;1.90;;
14139;SDS011;7150;53.514;9.988;2023-12-28T04:47:26;2.73;;;2.10;;
14139;SDS011;7150;53.514;9.988;2023-12-28T04:49:52;3.07;;;2.10;;
14139;SDS011;7150;53.514;9.988;2023-12-28T04:52:17;3.40;;;2.50;;
14139;SDS011;7150;53.514;9.988;2023-12-28T04:54:43;8.70;;;2.30;;
14139;SDS011;7150;53.514;9.988;2023-12-28T04:57:09;4.23;;;2.17;;
14139;SDS011;7150;53.514;9.988;2023-12-28T04:59:38;3.13;;;2.20;;
14139;SDS011;7150;53.514;9.988;2023-12-28T05:02:04;3.83;;;1.90;;
14139;SDS011;7150;53.514;9.988;2023-12-28T05:04:29;3.30;;;2.30;;
14139;SDS011;7150;53.514;9.988;2023-12-28T05:06:55;2.93;;;2.10;;
14139;SDS011;7150;53.514;9.988;2023-12-28T05:09:20;2.20;;;2.00;;
14139;SDS011;7150;53.514;9.988;2023-12-28T05:11:46;4.20;;;1.90;;
14139;SDS011;7150;53.514;9.988;2023-12-28T05:14:11;2.87;;;1.87;;
14139;SDS011;7150;53.514;9.988;2023-12-28T05:16:37;3.37;;;1.83;;
14139;SDS011;7150;53.514;9.988;2023-12-28T05:19:02;3.20;;;2.07;;
14139;SDS011;7150;53.514;9.988;2023-12-28T05:21:28;3.30;;;2.10;;
14139;SDS011;7150;53.514;9.988;2023-12-28T05:23:53;2.43;;;2.13;;
14139;SDS011;7150;53.514;9.988;2023-12-28T05:26:19;2.57;;;1.97;;
14139;SDS011;7150;53.514;9.988;2023-12-28T05:28:44;2.77;;;1.60;;
14139;SDS011;7150;53.514;9.988;2023-12-28T05:31:10;3.40;;;2.03;;
14139;SDS011;7150;53.514;9.988;2023-12-28T05:33:35;3.43;;;2.17;;
14139;SDS011;7150;53.514;9.988;2023-12-28T05:36:01;2.67;;;1.83;;
14139;SDS011;7150;53.514;9.988;2023-12-28T05:38:26;4.40;;;2.30;;
14139;SDS011;7150;53.514;9.988;2023-12-28T05:40:52;4.03;;;2.20;;
14139;SDS011;7150;53.514;9.988;2023-12-28T05:43:17;2.73;;;2.00;;
14139;SDS011;7150;53.514;9.988;2023-12-28T05:45:43;3.53;;;2.10;;
14139;SDS011;7150;53.514;9.988;2023-12-28T05:48:08;3.50;;;2.07;;
14139;SDS011;7150;53.514;9.988;2023-12-28T05:50:34;3.23;;;2.03;;
14139;SDS011;7150;53.514;9.988;2023-12-28T05:53:00;2.93;;;2.03;;
14139;SDS011;7150;53.514;9.988;2023-12-28T05:55:25;3.47;;;2.10;;
14139;SDS011;7150;53.514;9.988;2023-12-28T05:57:51;2.07;;;1.83;;
14139;SDS011;7150;53.514;9.988;2023-12-28T06:00:16;5.50;;;2.20;;
14139;SDS011;7150;53.514;9.988;2023-12-28T06:02:42;2.90;;;1.90;;
14139;SDS011;7150;53.514;9.988;2023-12-28T06:05:07;2.83;;;2.20;;
14139;SDS011;7150;53.514;9.988;2023-12-28T06:07:33;4.27;;;2.30;;
14139;SDS011;7150;53.514;9.988;2023-12-28T06:09:59;3.20;;;2.00;;
14139;SDS011;7150;53.514;9.988;2023-12-28T06:12:24;2.57;;;1.73;;
14139;SDS011;7150;53.514;9.988;2023-12-28T06:14:50;4.87;;;1.90;;
14139;SDS011;7150;53.514;9.988;2023-12-28T06:17:15;3.30;;;2.00;;
14139;SDS011;7150;53.514;9.988;2023-12-28T06:19:43;3.03;;;1.80;;
14139;SDS011;7150;53.514;9.988;2023-12-28T06:22:08;4.77;;;2.20;;
14139;SDS011;7150;53.514;9.988;2023-12-28T06:24:37;2.83;;;2.20;;
14139;SDS011;7150;53.514;9.988;2023-12-28T06:27:03;5.10;;;2.37;;
14139;SDS011;7150;53.514;9.988;2023-12-28T06:29:28;4.30;;;2.10;;
14139;SDS011;7150;53.514;9.988;2023-12-28T06:31:54;5.10;;;2.10;;
14139;SDS011;7150;53.514;9.988;2023-12-28T06:34:19;3.77;;;1.90;;
14139;SDS011;7150;53.514;9.988;2023-12-28T06:36:45;4.37;;;2.30;;
14139;SDS011;7150;53.514;9.988;2023-12-28T06:39:10;6.77;;;2.30;;
14139;SDS011;7150;53.514;9.988;2023-12-28T06:41:36;5.70;;;3.00;;
14139;SDS011;7150;53.514;9.988;2023-12-28T06:44:01;4.23;;;2.40;;
14139;SDS011;7150;53.514;9.988;2023-12-28T06:46:27;3.93;;;2.00;;
14139;SDS011;7150;53.514;9.988;2023-12-28T06:48:52;5.10;;;2.23;;
14139;SDS011;7150;53.514;9.988;2023-12-28T06:51:18;8.07;;;2.60;;
14139;SDS011;7150;53.514;9.988;2023-12-28T06:53:44;3.53;;;2.10;;
14139;SDS011;7150;53.514;9.988;2023-12-28T06:56:10;5.47;;;2.30;;
14139;SDS011;7150;53.514;9.988;2023-12-28T06:58:36;3.83;;;1.90;;
14139;SDS011;7150;53.514;9.988;2023-12-28T07:01:05;4.63;;;1.90;;
14139;SDS011;7150;53.514;9.988;2023-12-28T07:03:31;4.53;;;1.97;;
14139;SDS011;7150;53.514;9.988;2023-12-28T07:06:00;6.63;;;2.97;;
14139;SDS011;7150;53.514;9.988;2023-12-28T07:08:26;3.47;;;2.10;;
14139;SDS011;7150;53.514;9.988;2023-12-28T07:10:52;5.50;;;2.00;;
14139;SDS011;7150;53.514;9.988;2023-12-28T07:13:17;4.33;;;1.90;;
14139;SDS011;7150;53.514;9.988;2023-12-28T07:15:43;2.67;;;1.93;;
14139;SDS011;7150;53.514;9.988;2023-12-28T07:18:08;3.17;;;1.83;;
14139;SDS011;7150;53.514;9.988;2023-12-28T07:20:34;3.37;;;2.00;;
14139;SDS011;7150;53.514;9.988;2023-12-28T07:22:59;3.60;;;2.10;;
14139;SDS011;7150;53.514;9.988;2023-12-28T07:25:25;3.73;;;2.03;;
14139;SDS011;7150;53.514;9.988;2023-12-28T07:27:50;6.03;;;2.30;;
14139;SDS011;7150;53.514;9.988;2023-12-28T07:30:16;4.30;;;2.27;;
14139;SDS011;7150;53.514;9.988;2023-12-28T07:32:42;5.73;;;2.20;;
14139;SDS011;7150;53.514;9.988;2023-12-28T07:35:08;3.03;;;2.00;;
14139;SDS011;7150;53.514;9.988;2023-12-28T07:37:34;6.07;;;2.17;;
14139;SDS011;7150;53.514;9.988;2023-12-28T07:40:00;3.53;;;1.73;;
14139;SDS011;7150;53.514;9.988;2023-12-28T07:42:26;6.07;;;2.00;;
14139;SDS011;7150;53.514;9.988;2023-12-28T07:44:51;4.20;;;2.00;;
14139;SDS011;7150;53.514;9.988;2023-12-28T07:47:17;5.17;;;1.83;;
14139;SDS011;7150;53.514;9.988;2023-12-28T07:49:42;4.83;;;2.00;;
14139;SDS011;7150;53.514;9.988;2023-12-28T07:52:08;5.70;;;1.80;;
14139;SDS011;7150;53.514;9.988;2023-12-28T07:54:33;4.40;;;1.70;;
14139;SDS011;7150;53.514;9.988;2023-12-28T07:56:59;5.00;;;2.47;;
14139;SDS011;7150;53.514;9.988;2023-12-28T07:59:25;6.90;;;1.90;;
14139;SDS011;7150;53.514;9.988;2023-12-28T08:01:50;7.33;;;2.30;;
14139;SDS011;7150;53.514;9.988;2023-12-28T08:04:16;5.07;;;1.90;;
14139;SDS011;7150;53.514;9.988;2023-12-28T08:06:41;7.10;;;1.73;;
14139;SDS011;7150;53.514;9.988;2023-12-28T08:09:07;7.40;;;2.27;;
14139;SDS011;7150;53.514;9.988;2023-12-28T08:11:33;5.63;;;1.90;;
14139;SDS011;7150;53.514;9.988;2023-12-28T08:13:59;6.57;;;1.90;;
14139;SDS011;7150;53.514;9.988;2023-12-28T08:16:24;5.07;;;2.00;;
14139;SDS011;7150;53.514;9.988;2023-12-28T08:18:51;6.67;;;2.00;;
14139;SDS011;7150;53.514;9.988;2023-12-28T08:21:16;3.10;;;2.03;;
14139;SDS011;7150;53.514;9.988;2023-12-28T08:23:42;4.80;;;1.80;;
14139;SDS011;7150;53.514;9.988;2023-12-28T08:26:08;5.43;;;1.70;;
14139;SDS011;7150;53.514;9.988;2023-12-28T08:28:34;4.73;;;1.93;;
14139;SDS011;7150;53.514;9.988;2023-12-28T08:31:00;3.03;;;1.80;;
14139;SDS011;7150;53.514;9.988;2023-12-28T08:33:26;5.23;;;1.77;;
14139;SDS011;7150;53.514;9.988;2023-12-28T08:35:51;5.87;;;1.87;;
14139;SDS011;7150;53.514;9.988;2023-12-28T08:38:17;5.53;;;2.40;;
14139;SDS011;7150;53.514;9.988;2023-12-28T08:40:42;3.87;;;1.90;;
14139;SDS011;7150;53.514;9.988;2023-12-28T08:43:09;5.30;;;2.07;;
14139;SDS011;7150;53.514;9.988;2023-12-28T08:45:34;6.40;;;1.67;;
14139;SDS011;7150;53.514;9.988;2023-12-28T08:48:00;2.93;;;1.83;;
14139;SDS011;7150;53.514;9.988;2023-12-28T08:50:26;5.63;;;1.80;;
14139;SDS011;7150;53.514;9.988;2023-12-28T08:52:51;7.00;;;2.10;;
14139;SDS011;7150;53.514;9.988;2023-12-28T08:55:17;5.30;;;1.77;;
14139;SDS011;7150;53.514;9.988;2023-12-28T08:57:43;4.00;;;1.67;;
14139;SDS011;7150;53.514;9.988;2023-12-28T09:00:08;4.93;;;1.77;;
14139;SDS011;7150;53.514;9.988;2023-12-28T09:02:35;3.07;;;1.67;;
14139;SDS011;7150;53.514;9.988;2023-12-28T09:05:00;5.87;;;1.93;;
14139;SDS011;7150;53.514;9.988;2023-12-28T09:07:26;5.57;;;1.80;;
14139;SDS011;7150;53.514;9.988;2023-12-28T09:09:51;4.73;;;1.67;;
14139;SDS011;7150;53.514;9.988;2023-12-28T09:12:17;7.40;;;1.93;;
14139;SDS011;7150;53.514;9.988;2023-12-28T09:14:43;4.47;;;1.47;;
14139;SDS011;7150;53.514;9.988;2023-12-28T09:17:08;5.33;;;1.93;;
14139;SDS011;7150;53.514;9.988;2023-12-28T09:19:34;6.00;;;1.90;;
14139;SDS011;7150;53.514;9.988;2023-12-28T09:21:59;4.47;;;1.70;;
14139;SDS011;7150;53.514;9.988;2023-12-28T09:24:25;6.93;;;2.13;;
14139;SDS011;7150;53.514;9.988;2023-12-28T09:26:50;5.83;;;1.87;;
14139;SDS011;7150;53.514;9.988;2023-12-28T09:29:16;6.00;;;2.13;;
14139;SDS011;7150;53.514;9.988;2023-12-28T09:31:41;4.00;;;2.10;;
14139;SDS011;7150;53.514;9.988;2023-12-28T09:34:07;4.80;;;2.07;;
14139;SDS011;7150;53.514;9.988;2023-12-28T09:36:32;6.50;;;2.13;;
14139;SDS011;7150;53.514;9.988;2023-12-28T09:38:58;6.80;;;1.60;;
14139;SDS011;7150;53.514;9.988;2023-12-28T09:41:26;5.43;;;2.43;;
14139;SDS011;7150;53.514;9.988;2023-12-28T09:44:05;8.80;;;2.10;;
14139;SDS011;7150;53.514;9.988;2023-12-28T09:46:34;4.80;;;1.57;;
14139;SDS011;7150;53.514;9.988;2023-12-28T09:49:00;6.53;;;1.87;;
14139;SDS011;7150;53.514;9.988;2023-12-28T09:51:27;5.10;;;1.60;;
14139;SDS011;7150;53.514;9.988;2023-12-28T09:53:53;7.53;;;1.93;;
14139;SDS011;7150;53.514;9.988;2023-12-28T09:56:19;5.87;;;2.33;;
14139;SDS011;7150;53.514;9.988;2023-12-28T09:58:45;5.03;;;1.67;;
14139;SDS011;7150;53.514;9.988;2023-12-28T10:01:14;6.13;;;2.00;;
14139;SDS011;7150;53.514;9.988;2023-12-28T10:03:40;4.97;;;1.70;;
14139;SDS011;7150;53.514;9.988;2023-12-28T10:06:05;4.60;;;2.03;;
14139;SDS011;7150;53.514;9.988;2023-12-28T10:08:31;5.33;;;1.90;;
14139;SDS011;7150;53.514;9.988;2023-12-28T10:10:56;8.77;;;2.17;;
14139;SDS011;7150;53.514;9.988;2023-12-28T10:13:24;4.23;;;2.30;;
14139;SDS011;7150;53.514;9.988;2023-12-28T10:15:50;7.70;;;2.17;;
14139;SDS011;7150;53.514;9.988;2023-12-28T10:18:17;8.87;;;1.90;;
14139;SDS011;7150;53.514;9.988;2023-12-28T10:20:48;6.93;;;2.00;;
14139;SDS011;7150;53.514;9.988;2023-12-28T10:23:15;5.77;;;1.70;;
14139;SDS011;7150;53.514;9.988;2023-12-28T10:25:41;4.43;;;2.10;;
14139;SDS011;7150;53.514;9.988;2023-12-28T10:28:08;6.33;;;2.10;;
14139;SDS011;7150;53.514;9.988;2023-12-28T10:30:34;5.87;;;2.07;;
14139;SDS011;7150;53.514;9.988;2023-12-28T10:33:00;7.20;;;1.93;;
14139;SDS011;7150;53.514;9.988;2023-12-28T10:35:25;6.13;;;1.67;;
14139;SDS011;7150;53.514;9.988;2023-12-28T10:37:52;5.47;;;1.57;;
14139;SDS011;7150;53.514;9.988;2023-12-28T10:40:21;7.73;;;2.00;;
14139;SDS011;7150;53.514;9.988;2023-12-28T10:45:28;4.20;;;1.60;;
14139;SDS011;7150;53.514;9.988;2023-12-28T10:48:00;7.17;;;2.20;;
14139;SDS011;7150;53.514;9.988;2023-12-28T10:50:37;5.13;;;1.90;;
14139;SDS011;7150;53.514;9.988;2023-12-28T10:58:50;7.93;;;2.00;;
14139;SDS011;7150;53.514;9.988;2023-12-28T11:01:25;5.17;;;2.07;;
14139;SDS011;7150;53.514;9.988;2023-12-28T11:06:51;8.07;;;2.30;;
14139;SDS011;7150;53.514;9.988;2023-12-28T11:09:18;8.80;;;2.20;;
14139;SDS011;7150;53.514;9.988;2023-12-28T11:11:46;5.17;;;1.87;;
14139;SDS011;7150;53.514;9.988;2023-12-28T11:14:14;4.97;;;1.80;;
14139;SDS011;7150;53.514;9.988;2023-12-28T11:16:42;6.13;;;1.83;;
14139;SDS011;7150;53.514;9.988;2023-12-28T11:19:08;8.47;;;2.03;;
14139;SDS011;7150;53.514;9.988;2023-12-28T11:21:35;8.20;;;2.20;;
14139;SDS011;7150;53.514;9.988;2023-12-28T11:24:01;4.83;;;1.80;;
14139;SDS011;7150;53.514;9.988;2023-12-28T11:26:28;4.87;;;2.00;;
14139;SDS011;7150;53.514;9.988;2023-12-28T11:29:00;5.17;;;1.90;;
14139;SDS011;7150;53.514;9.988;2023-12-28T11:31:27;11.23;;;2.80;;
14139;SDS011;7150;53.514;9.988;2023-12-28T11:33:52;6.33;;;2.10;;
14139;SDS011;7150;53.514;9.988;2023-12-28T11:36:40;7.03;;;1.93;;
14139;SDS011;7150;53.514;9.988;2023-12-28T11:39:08;6.37;;;1.70;;
14139;SDS011;7150;53.514;9.988;2023-12-28T11:41:38;10.17;;;2.67;;
14139;SDS011;7150;53.514;9.988;2023-12-28T11:44:04;7.17;;;1.93;;
14139;SDS011;7150;53.514;9.988;2023-12-28T11:46:31;11.00;;;2.30;;
14139;SDS011;7150;53.514;9.988;2023-12-28T11:49:06;6.50;;;2.47;;
14139;SDS011;7150;53.514;9.988;2023-12-28T11:51:33;9.10;;;2.50;;
14139;SDS011;7150;53.514;9.988;2023-12-28T11:54:00;11.33;;;2.17;;
14139;SDS011;7150;53.514;9.988;2023-12-28T11:56:28;9.73;;;2.10;;
14139;SDS011;7150;53.514;9.988;2023-12-28T11:58:54;4.63;;;1.73;;
14139;SDS011;7150;53.514;9.988;2023-12-28T12:01:20;7.37;;;2.07;;
14139;SDS011;7150;53.514;9.988;2023-12-28T12:03:45;8.40;;;2.17;;
14139;SDS011;7150;53.514;9.988;2023-12-28T12:06:11;9.37;;;2.30;;
14139;SDS011;7150;53.514;9.988;2023-12-28T12:08:36;6.90;;;2.37;;
14139;SDS011;7150;53.514;9.988;2023-12-28T12:11:02;9.07;;;2.27;;
14139;SDS011;7150;53.514;9.988;2023-12-28T12:13:31;8.40;;;2.10;;
14139;SDS011;7150;53.514;9.988;2023-12-28T12:15:56;11.40;;;2.93;;
14139;SDS011;7150;53.514;9.988;2023-12-28T12:18:22;7.33;;;2.07;;
14139;SDS011;7150;53.514;9.988;2023-12-28T12:20:48;5.40;;;2.10;;
14139;SDS011;7150;53.514;9.988;2023-12-28T12:23:15;4.97;;;2.00;;
14139;SDS011;7150;53.514;9.988;2023-12-28T12:25:41;6.60;;;2.13;;
14139;SDS011;7150;53.514;9.988;2023-12-28T12:28:06;9.20;;;2.33;;
14139;SDS011;7150;53.514;9.988;2023-12-28T12:30:32;6.57;;;2.10;;
14139;SDS011;7150;53.514;9.988;2023-12-28T12:32:58;11.67;;;2.80;;
14139;SDS011;7150;53.514;9.988;2023-12-28T12:35:24;8.30;;;2.13;;
14139;SDS011;7150;53.514;9.988;2023-12-28T12:37:50;9.63;;;2.67;;
14139;SDS011;7150;53.514;9.988;2023-12-28T12:40:16;10.13;;;2.57;;
14139;SDS011;7150;53.514;9.988;2023-12-28T12:42:51;7.13;;;2.07;;
14139;SDS011;7150;53.514;9.988;2023-12-28T12:45:18;8.70;;;2.43;;
14139;SDS011;7150;53.514;9.988;2023-12-28T12:47:44;5.30;;;2.23;;
14139;SDS011;7150;53.514;9.988;2023-12-28T12:50:11;7.10;;;2.00;;
14139;SDS011;7150;53.514;9.988;2023-12-28T12:52:36;6.90;;;2.40;;
14139;SDS011;7150;53.514;9.988;2023-12-28T12:55:03;15.50;;;2.73;;
14139;SDS011;7150;53.514;9.988;2023-12-28T12:57:29;8.03;;;2.23;;
14139;SDS011;7150;53.514;9.988;2023-12-28T12:59:55;7.07;;;2.30;;
14139;SDS011;7150;53.514;9.988;2023-12-28T13:02:24;10.83;;;2.70;;
14139;SDS011;7150;53.514;9.988;2023-12-28T13:04:53;8.10;;;2.20;;
14139;SDS011;7150;53.514;9.988;2023-12-28T13:07:20;6.20;;;1.83;;
14139;SDS011;7150;53.514;9.988;2023-12-28T13:09:45;8.23;;;2.00;;
14139;SDS011;7150;53.514;9.988;2023-12-28T13:12:11;7.70;;;2.23;;
14139;SDS011;7150;53.514;9.988;2023-12-28T13:14:36;12.63;;;2.33;;
14139;SDS011;7150;53.514;9.988;2023-12-28T13:17:02;6.80;;;2.30;;
14139;SDS011;7150;53.514;9.988;2023-12-28T13:19:27;3.50;;;2.10;;
14139;SDS011;7150;53.514;9.988;2023-12-28T13:21:53;8.60;;;2.10;;
14139;SDS011;7150;53.514;9.988;2023-12-28T13:24:19;8.27;;;2.73;;
14139;SDS011;7150;53.514;9.988;2023-12-28T13:26:45;8.60;;;2.97;;
14139;SDS011;7150;53.514;9.988;2023-12-28T13:29:10;8.67;;;2.33;;
14139;SDS011;7150;53.514;9.988;2023-12-28T13:31:36;8.40;;;2.70;;
14139;SDS011;7150;53.514;9.988;2023-12-28T13:34:01;7.83;;;2.33;;
14139;SDS011;7150;53.514;9.988;2023-12-28T13:36:27;6.43;;;2.40;;
14139;SDS011;7150;53.514;9.988;2023-12-28T13:38:53;8.27;;;2.00;;
14139;SDS011;7150;53.514;9.988;2023-12-28T13:41:19;9.23;;;2.50;;
14139;SDS011;7150;53.514;9.988;2023-12-28T13:43:44;9.17;;;2.40;;
14139;SDS011;7150;53.514;9.988;2023-12-28T13:46:10;6.30;;;2.40;;
14139;SDS011;7150;53.514;9.988;2023-12-28T13:48:35;6.27;;;2.10;;
14139;SDS011;7150;53.514;9.988;2023-12-28T13:51:03;6.87;;;1.77;;
14139;SDS011;7150;53.514;9.988;2023-12-28T13:53:30;6.00;;;2.33;;
14139;SDS011;7150;53.514;9.988;2023-12-28T13:55:56;8.73;;;2.17;;
14139;SDS011;7150;53.514;9.988;2023-12-28T13:58:22;6.53;;;2.30;;
14139;SDS011;7150;53.514;9.988;2023-12-28T14:00:47;8.23;;;2.23;;
14139;SDS011;7150;53.514;9.988;2023-12-28T14:03:13;5.23;;;1.80;;
14139;SDS011;7150;53.514;9.988;2023-12-28T14:05:38;11.70;;;2.43;;
14139;SDS011;7150;53.514;9.988;2023-12-28T14:08:04;11.03;;;2.83;;
14139;SDS011;7150;53.514;9.988;2023-12-28T14:10:30;8.93;;;2.43;;
14139;SDS011;7150;53.514;9.988;2023-12-28T14:12:55;6.27;;;2.30;;
14139;SDS011;7150;53.514;9.988;2023-12-28T14:15:21;8.03;;;2.63;;
14139;SDS011;7150;53.514;9.988;2023-12-28T14:17:46;6.77;;;2.53;;
14139;SDS011;7150;53.514;9.988;2023-12-28T14:20:12;7.47;;;2.40;;
14139;SDS011;7150;53.514;9.988;2023-12-28T14:22:40;9.87;;;2.27;;
14139;SDS011;7150;53.514;9.988;2023-12-28T14:25:06;9.00;;;2.30;;
14139;SDS011;7150;53.514;9.988;2023-12-28T14:27:33;8.67;;;2.33;;
14139;SDS011;7150;53.514;9.988;2023-12-28T14:29:58;7.90;;;2.20;;
14139;SDS011;7150;53.514;9.988;2023-12-28T14:32:28;5.90;;;2.00;;
14139;SDS011;7150;53.514;9.988;2023-12-28T14:34:54;6.43;;;2.20;;
14139;SDS011;7150;53.514;9.988;2023-12-28T14:37:19;7.43;;;2.33;;
14139;SDS011;7150;53.514;9.988;2023-12-28T14:39:45;8.83;;;2.47;;
14139;SDS011;7150;53.514;9.988;2023-12-28T14:42:10;7.30;;;2.40;;
14139;SDS011;7150;53.514;9.988;2023-12-28T14:44:36;8.13;;;2.13;;
14139;SDS011;7150;53.514;9.988;2023-12-28T14:47:01;8.10;;;2.13;;
14139;SDS011;7150;53.514;9.988;2023-12-28T14:49:27;6.90;;;2.40;;
14139;SDS011;7150;53.514;9.988;2023-12-28T14:51:52;6.87;;;2.10;;
14139;SDS011;7150;53.514;9.988;2023-12-28T14:54:18;9.47;;;2.30;;
14139;SDS011;7150;53.514;9.988;2023-12-28T14:56:43;7.17;;;2.17;;
14139;SDS011;7150;53.514;9.988;2023-12-28T14:59:10;9.80;;;2.47;;
14139;SDS011;7150;53.514;9.988;2023-12-28T15:01:36;6.70;;;2.27;;
14139;SDS011;7150;53.514;9.988;2023-12-28T15:04:01;9.77;;;2.27;;
14139;SDS011;7150;53.514;9.988;2023-12-28T15:06:27;10.93;;;2.30;;